MUCF/CFG METAR and TAF weather

Enter ICAO airport designator
Station Type Date Time Source
MUCF METAR 2021/09/24 02:59 UTC NOAA

MUCF 240259Z AUTO 06004KT 030V090 24/23 Q1014


Station Type Date Time Source
MUCF Decoded METAR 2021/09/24 02:59 UTC NOAA

Cienfuegos, Las Villas, Cuba (MUCF) 22-09N 080-24W 39M
Sep 23, 2021 - 10:59 PM EDT / 2021.09.24 0259 UTC
Wind: from the ENE (060 degrees) at 5 MPH (4 KT) (direction variable):0
Temperature: 75 F (24 C)
Dew Point: 73 F (23 C)
Relative Humidity: 94%
Pressure (altimeter): 29.94 in. Hg (1014 hPa)
ob: MUCF 240259Z AUTO 06004KT 030V090 24/23 Q1014
cycle: 3

Station Type Date Time Source
MUCF TAF 2021/09/23 18:03 UTC NOAA

MUCF 231700Z 2318/2406 VRB03KT 9000 SCT020
TEMPO 2318/2324 VRB10KT 5000 TS SCT018CB BKN020

Example: see airport list